Capitol Logistics 450


KMIA
Miami International Airport
Miami, Florida, US
KRFD
Chicago/Rockford International Airport
Rockford, Illinois, US

Route Details

Aircraft Information
Primary: Boeing 757-200SF
Backup: Boeing 737-800BCF
Route Data
Distance: 1139nm
Sched. Duration: 3h 00m
Avg. Duration: 3h 00m (+0m)
Times Flown: 15
Recm'd Route: WINCO2 WINCO J73 LAL CTY J91 ATL VARNM GLAZR Q118 HEVAN Q118 MZZ JOT
Planned Altitude: 35,000ft
Origin Wx: KMIA 021453Z 00000KT 10SM SCT034 32/23 A3001 RMK AO2 SLP161 T03220228 51008 $
Dest. Wx: KRFD 021454Z 15003KT 10SM FEW065 SCT250 28/19 A3007 RMK AO2 SLP177 T02780194 51006
Notes:

Financial History
Total Freight: 1,112,496lbs
Average Load: 74,166lbs/flt
Fuel Used: 430,513lbs
Avg. Fuel Used: 28,701lbs/flt
Fuel Expense: $530,765
Avg. Fuel Expense: $35,384
Avg. Fuel Cost: $1.23/lbs
Total Gross Income: $1,512,908
Pilot Pay: $2,095
Total Expenses: $164,174
Total Revenue: $809,458
Average Revenue: $100,860.50